RV Helmer Hanssen — LAHV — position and weather

sailwx.info

Track history (hours):
 
Tides and Currents Weather Stations Pressure Air Temp Water Temp Dewpoint Dewpoint Depression Visibility Wind Speed Wind Dir Waves Ship Positions

Oceanographic research ship RV Helmer Hanssen (Norway)

ex Jan Mayen.

Ship's website: http://uit.no/bfe

Detailed information on ship capabilities available from University of Delaware's Ocean Information Center and ARCUS's ALIAS (Arctic Logistics Information and Support) project.

Last reported at 2019-Mar-25 09:00 UTC. Time now 2019-Mar-25 09:47 UTC.
Position N 71°48' W 017°06'.

Length 64 m; beam 13 m.

Type: Other ship. MMSI: 257471500.

Wind from 240 at 5 knots

Barometer 1022.3 mb
Air temperature -12.2 ° C
Visibility: greater than 27.0 NM
Water temperature -0.0 ° C

Date/timePositionNaut miles runAvg speedWind from/ knotsBaromVisibWave heightAir tempDewpointWater temp
2019-Mar-25 09:00N 71°48' W 017°06'4 3.7 240 / 51022.327.0 -12.2 -0.0
2019-Mar-25 08:00N 71°48' W 016°54'6 6.3 240 / 21023.1 -12.6 0.3
2019-Mar-25 07:00N 71°42' W 016°48'0 0.0 320 / 31023.2 -12.8 -0.1
2019-Mar-25 06:00N 71°42' W 016°48'2 1.9 310 / 31023.810.8 -13.0 -0.2
2019-Mar-25 05:00N 71°42' W 016°42'0 0.0 300 / 41023.8 -13.1 -0.1
2019-Mar-25 04:00N 71°42' W 016°42'0 0.0 340 / 81023.5 -13.0 -0.0
2019-Mar-25 03:00N 71°42' W 016°42'0 0.0 340 / 101023.610.8 -12.8 -0.1
2019-Mar-25 02:00N 71°42' W 016°42'0 0.0 340 / 111023.4 -12.7 -0.3
2019-Mar-25 01:00N 71°42' W 016°42'0 0.0 330 / 141023.7 -12.7 -0.0
2019-Mar-25 00:00N 71°42' W 016°42'6 6.0 340 / 171023.527.0 -12.8 -0.2
2019-Mar-24 23:00N 71°48' W 016°42'0 0.0 350 / 201022.4 -12.3 -0.1
2019-Mar-24 22:00N 71°48' W 016°42'0 0.0 340 / 181021.9 -12.0 0.1
2019-Mar-24 21:00N 71°48' W 016°42'2 1.9 330 / 211021.727.0 -12.5 -0.0
2019-Mar-24 20:00N 71°48' W 016°36'6 6.3 330 / 231021.1 -12.3 -0.1
2019-Mar-24 19:00N 71°54' W 016°30'2 1.9 330 / 231020.3 -12.0 -0.8
2019-Mar-24 18:00N 71°54' W 016°24'6 6.0 330 / 221019.0 -12.1 -0.8
2019-Mar-24 17:00N 72°00' W 016°24'0 0.0 330 / 221018.1 -12.3 -0.8
2019-Mar-24 16:00N 72°00' W 016°24'6 6.3 320 / 211017.0 -12.5 -0.5
2019-Mar-24 15:00N 72°06' W 016°18'0 0.0 320 / 211016.4 5.4 -12.2 -0.8
2019-Mar-24 14:00N 72°06' W 016°18'2 1.8 320 / 191015.8 -12.3 -1.1
2019-Mar-24 13:00N 72°06' W 016°24'2 1.8 320 / 201015.2 -12.5 -0.9
2019-Mar-24 12:00N 72°06' W 016°30'2 1.8 310 / 191014.7 -12.6 -0.2
2019-Mar-24 11:00N 72°06' W 016°36'2 1.8 320 / 181014.3 -12.8 -0.7
2019-Mar-24 10:00N 72°06' W 016°42'2 1.8 330 / 131013.4 -12.1 -0.8
2019-Mar-24 09:00N 72°06' W 016°48'0 0.0 340 / 101012.5 5.4 -12.1 -0.5
2019-Mar-24 08:00N 72°06' W 016°48'0 0.0 340 / 101011.5 -12.0 -0.6
2019-Mar-24 07:00N 72°06' W 016°48'0 0.0 350 / 111010.5 -11.5 -0.7
2019-Mar-24 06:00N 72°06' W 016°48'0 0.0 010 / 101009.610.8 -10.8 -0.5
2019-Mar-24 05:00N 72°06' W 016°48'0 0.0 020 / 111009.0 -11.0 -0.5
2019-Mar-24 04:00N 72°06' W 016°48'2 1.8 020 / 131008.5 -11.3 -0.6
2019-Mar-24 03:00N 72°06' W 016°54'2 1.8 030 / 151007.7 -11.5 -0.7
2019-Mar-24 02:00N 72°06' W 016°48'0 0.0 030 / 131007.1 -11.8 -0.5
2019-Mar-24 01:00N 72°06' W 016°48'0 0.0 020 / 101007.1 -11.8 -0.6
2019-Mar-24 00:00N 72°06' W 016°48'0 0.0 020 / 101006.410.8 -11.8 -0.9
2019-Mar-23 23:00N 72°06' W 016°48'2 1.8 020 / 101005.7 -12.2 -0.9
2019-Mar-23 22:00N 72°06' W 016°42'0 0.0 010 / 111005.4 -12.6 -0.6
2019-Mar-23 21:00N 72°06' W 016°42'0 0.0 010 / 101005.027.0 -12.2 -0.4
2019-Mar-23 20:00N 72°06' W 016°42'2 1.8 1004.5 -12.2 -0.6
2019-Mar-23 19:00N 72°06' W 016°48'0 0.0 010 / 101004.0 -12.6 -0.7
2019-Mar-23 18:00N 72°06' W 016°48'0 0.0 010 / 101003.3 -12.6 -1.0
2019-Mar-23 17:00N 72°06' W 016°48'0 0.0 340 / 121003.2 -12.2 -0.8
2019-Mar-23 16:00N 72°06' W 016°48'6 6.0 330 / 131002.6 -12.2 -0.0
2019-Mar-23 15:00N 72°00' W 016°48'2 1.9 350 / 151002.3 -12.2 0.1
2019-Mar-23 14:00N 72°00' W 016°42'2 1.9 350 / 171001.1 -11.8 0.1
2019-Mar-23 13:00N 72°00' W 016°36'2 1.9 350 / 171000.6 -12.6 0.1
2019-Mar-23 12:00N 72°00' W 016°30'0 0.0 340 / 181000.327.0 -12.8 -0.0
2019-Mar-23 11:00N 72°00' W 016°30'2 1.9 350 / 22999.3 -12.5 -0.2
2019-Mar-23 10:00N 72°00' W 016°24'2 1.9 350 / 21998.8 -13.8 0.1
2019-Mar-23 09:00N 72°00' W 016°18'0 0.0 360 / 24997.727.0 -14.2 0.5
2019-Mar-23 08:00N 72°00' W 016°18'6 6.0 350 / 26997.3 -15.0 0.6
2019-Mar-23 07:00N 72°06' W 016°18'0 0.0 340 / 27996.3 -14.8 0.5
2019-Mar-23 06:00N 72°06' W 016°18'0 0.0 340 / 27995.210.8 -14.8 -0.1
2019-Mar-23 05:00N 72°06' W 016°18'0 0.0 350 / 30994.0 -14.3 0.3
2019-Mar-23 04:00N 72°06' W 016°18'6 6.0 350 / 31993.3 -15.3 -0.0
2019-Mar-23 03:00N 72°12' W 016°18'2 1.8 340 / 28993.2 -14.3 -0.3
2019-Mar-23 02:00N 72°12' W 016°12'0 0.0 340 / 25992.3 -14.0 -0.9
2019-Mar-23 01:00N 72°12' W 016°12'2 1.8 360 / 31991.7 -12.8 -1.1
2019-Mar-23 00:00N 72°12' W 016°06'0 0.0 360 / 31991.510.8 -12.6 -1.2
2019-Mar-22 23:00N 72°12' W 016°06'0 0.0 991.1 -11.8 -1.1
2019-Mar-22 22:00N 72°12' W 016°06'0 0.0 991.0 -12.5 -0.4
2019-Mar-22 21:00N 72°12' W 016°06'0 0.0 991.027.0 -12.2 0.4
2019-Mar-22 20:00N 72°12' W 016°06'6 6.0 010 / 33990.8 -11.0 0.1
2019-Mar-22 19:00N 72°18' W 016°06'2 1.8 010 / 30991.5 -10.8 -1.0
2019-Mar-22 18:00N 72°18' W 016°00'0 0.0 020 / 29992.210.8 -10.7 -0.8
2019-Mar-22 17:00N 72°18' W 016°00'2 1.8 020 / 28992.5 -10.5 -0.7
2019-Mar-22 16:00N 72°18' W 015°54'0 0.0 020 / 25993.8 -11.1 -0.7
2019-Mar-22 15:00N 72°18' W 015°54'2 1.8 020 / 21995.3 -12.2 -0.8
2019-Mar-22 14:00N 72°18' W 015°48'0 0.0 020 / 19996.0 -11.8 -0.8
2019-Mar-22 13:00N 72°18' W 015°48'0 0.0 020 / 18997.4 -13.7 -1.1
2019-Mar-22 12:00N 72°18' W 015°48'0 0.0 020 / 15998.910.8 -13.8 -1.3
2019-Mar-22 11:00N 72°18' W 015°48'0 0.0 360 / 121000.3 -14.2 -1.5
2019-Mar-22 10:00N 72°18' W 015°48'2 1.8 340 / 81002.0 -13.8 -1.2
2019-Mar-22 09:00N 72°18' W 015°42'4 3.6 330 / 81002.827.0 -13.7 -1.6
2019-Mar-22 08:00N 72°18' W 015°30'7 7.3 330 / 91003.5 -13.7 -1.6
2019-Mar-22 07:00N 72°18' W 015°06'1110.9 330 / 61004.1 -12.2 -1.1
2019-Mar-22 06:00N 72°24' W 014°36'6 6.0 270 / 51004.527.0 -13.2 -1.2
2019-Mar-22 05:00N 72°30' W 014°36'2 1.8 280 / 81004.5 -14.6 -1.5
2019-Mar-22 04:00N 72°30' W 014°42'0 0.0 270 / 131004.3 -15.1 -1.8
2019-Mar-22 03:00N 72°30' W 014°42'6 6.3 290 / 181003.610.8 -14.3 -1.8
2019-Mar-22 02:00N 72°36' W 014°36'1212.0 270 / 251002.9 -14.3 -0.4
2019-Mar-22 01:00N 72°48' W 014°36'6 6.3 250 / 291002.0 -15.6 -1.1
2019-Mar-22 00:00N 72°54' W 014°42'4 3.5 260 / 281000.727.0 -15.1 -0.9
2019-Mar-21 23:00N 72°54' W 014°54'7 7.0 260 / 29999.5 -16.2 -1.0
2019-Mar-21 22:00N 73°00' W 015°06'4 3.5 250 / 27998.6 -17.1 -1.2
2019-Mar-21 21:00N 73°00' W 015°18'5 5.3 250 / 26997.227.0 -17.3 -1.5
2019-Mar-21 20:00N 73°00' W 015°36'2 1.8 250 / 24996.1 -16.7 -1.4
2019-Mar-21 19:00N 73°00' W 015°42'2 1.8 260 / 22995.0 -17.3 -1.3
2019-Mar-21 18:00N 73°00' W 015°48'0 0.0 260 / 25993.9 -17.3 -1.5
2019-Mar-21 17:00N 73°00' W 015°48'6 6.0 260 / 24992.6 -16.8 -1.6
2019-Mar-21 16:00N 72°54' W 015°48'0 0.0 270 / 22991.0 -15.8 -1.1
2019-Mar-21 15:00N 72°54' W 015°48'2 1.8 290 / 30989.2 -15.8 -1.1
2019-Mar-21 14:00N 72°54' W 015°42'2 1.8 300 / 33986.9 -16.3 -1.0
2019-Mar-21 13:00N 72°54' W 015°36'0 0.0 310 / 27984.1 -16.8 -1.6
2019-Mar-21 12:00N 72°54' W 015°36'2 1.8 310 / 20981.9 2.2 -15.8 -1.5
2019-Mar-21 11:00N 72°54' W 015°42'0 0.0 310 / 14980.1 -14.0 -1.3
2019-Mar-21 10:00N 72°54' W 015°42'0 0.0 220 / 19979.2 -15.2 -1.2
2019-Mar-21 09:00N 72°54' W 015°42'0 0.0 230 / 21978.8 -13.8 -1.1
2019-Mar-21 08:00N 72°54' W 015°42'0 0.0 220 / 9977.9 -11.3 -1.2
2019-Mar-21 07:00N 72°54' W 015°42'0 0.0 170 / 21977.4 -9.3 -1.2
2019-Mar-21 06:00N 72°54' W 015°42'0 0.0 110 / 2977.9 2.2 -10.8 -1.1
2019-Mar-21 05:00N 72°54' W 015°42'2 1.8 350 / 8977.6 -10.5 -0.9
2019-Mar-21 04:00N 72°54' W 015°48'0 0.0 010 / 7978.2 -11.2 -0.9
2019-Mar-21 03:00N 72°54' W 015°48'0 0.0 290 / 5978.810.8 -10.1 -0.8
2019-Mar-21 02:00N 72°54' W 015°48'0 0.0 260 / 6979.1 -10.2 -1.3
2019-Mar-21 01:00N 72°54' W 015°48'0 0.0 240 / 16979.6 -9.6 -1.3
2019-Mar-21 00:00N 72°54' W 015°48'2 1.8 190 / 8979.610.8 -7.8 -1.4
2019-Mar-20 23:00N 72°54' W 015°42'0 0.0 180 / 7979.6 -7.8 -1.3
2019-Mar-20 22:00N 72°54' W 015°42'0 0.0 290 / 11980.1 -11.8 -1.6
2019-Mar-20 21:00N 72°54' W 015°42'2 1.8 110 / 8979.5 5.4 -6.1 -1.4
2019-Mar-20 20:00N 72°54' W 015°48'0 0.0 320 / 3980.4 -9.3 -1.2
2019-Mar-20 19:00N 72°54' W 015°48'0 0.0 150 / 6980.8 -9.1 -1.1
2019-Mar-20 18:00N 72°54' W 015°48'2 1.8 250 / 6980.910.8 -11.8 -1.4
2019-Mar-20 17:00N 72°54' W 015°54'0 0.0 210 / 11981.4 -11.0 -1.6
2019-Mar-20 16:00N 72°54' W 015°54'0 0.0 220 / 18981.5 -11.0 -1.3
2019-Mar-20 15:00N 72°54' W 015°54'2 1.8 200 / 13981.2 -10.0 -1.3
2019-Mar-20 14:00N 72°54' W 016°00'2 1.8 350 / 11980.2 -12.0 -1.4
2019-Mar-20 13:00N 72°54' W 015°54'0 0.0 320 / 17977.4 -9.6 -1.4
2019-Mar-20 12:00N 72°54' W 015°54'0 0.0 050 / 28976.8 0.3 -7.6 -1.5
2019-Mar-20 11:00N 72°54' W 015°54'2 1.8 060 / 24979.0 -9.3 -1.3
2019-Mar-20 10:00N 72°54' W 015°48'2 1.8 070 / 19980.4 -10.1 -1.6
2019-Mar-20 09:00N 72°54' W 015°54'0 0.0 070 / 17981.2 -12.0 -1.6
2019-Mar-20 08:00N 72°54' W 015°54'2 1.8 080 / 15982.4 -13.3 -1.0
2019-Mar-20 07:00N 72°54' W 015°48'0 0.0 070 / 11982.9 -14.8 -1.4
2019-Mar-20 06:00N 72°54' W 015°48'0 0.0 070 / 7983.810.8 -16.5 -1.4
2019-Mar-20 05:00N 72°54' W 015°48'0 0.0 020 / 8984.0 -18.7 -1.4
2019-Mar-20 04:00N 72°54' W 015°48'0 0.0 360 / 7984.2 -19.8 -1.3
2019-Mar-20 03:00N 72°54' W 015°48'0 0.0 330 / 6984.610.8 -20.5 -1.0
2019-Mar-20 02:00N 72°54' W 015°48'2 1.8 320 / 7984.8 -20.1 -1.1
2019-Mar-20 01:00N 72°54' W 015°42'0 0.0 010 / 13984.6 -19.6 -1.1
2019-Mar-20 00:00N 72°54' W 015°42'0 0.0 350 / 16984.110.8 -19.9 -1.2
2019-Mar-19 23:00N 72°54' W 015°42'6 6.0 340 / 20983.7 -20.0 -1.0
2019-Mar-19 22:00N 73°00' W 015°42'0 0.0 340 / 21982.9 -19.3 -0.9
2019-Mar-19 21:00N 73°00' W 015°42'0 0.0 340 / 25982.1 -19.9 -1.3
2019-Mar-19 20:00N 73°00' W 015°42'2 1.8 340 / 25981.6 -20.2 -1.3
2019-Mar-19 19:00N 73°00' W 015°36'2 1.8 350 / 28980.8 -20.0 -1.3
2019-Mar-19 18:00N 73°00' W 015°42'0 0.0 340 / 31980.2 1.1 -20.7 -1.4
2019-Mar-19 17:00N 73°00' W 015°42'6 6.3 350 / 30980.3 -20.3 -1.4
2019-Mar-19 16:00N 72°54' W 015°36'2 1.8 350 / 34979.4 -19.6 -1.3
2019-Mar-19 15:00N 72°54' W 015°30'2 1.8 350 / 34978.9 -19.5 -1.0
2019-Mar-19 14:00N 72°54' W 015°24'2 1.8 350 / 34979.2 -18.4 -1.0
2019-Mar-19 13:00N 72°54' W 015°18'6 6.3 350 / 34978.5 -18.4 -0.4
2019-Mar-19 12:00N 72°48' W 015°12'2 1.8 350 / 34978.0 -17.7 -0.5
2019-Mar-19 11:00N 72°48' W 015°06'4 3.5 350 / 32978.2 -17.1 -0.5
2019-Mar-19 10:00N 72°48' W 014°54'7 7.0 350 / 29977.6 -15.1 -0.6
2019-Mar-19 09:00N 72°42' W 014°42'9 8.9 340 / 24976.8 2.2 -10.8 -0.3
2019-Mar-19 08:00N 72°42' W 014°12'9 9.3 310 / 11976.4 -4.7 -0.3
2019-Mar-19 07:00N 72°36' W 013°48'0 0.0 230 / 14976.8 -1.3 -0.0
2019-Mar-19 06:00N 72°36' W 013°48'0 0.0 170 / 23977.4 2.2 0.2 -0.1
2019-Mar-19 05:00N 72°36' W 013°48'2 1.8 160 / 24978.3 0.2 -0.0
2019-Mar-19 04:00N 72°36' W 013°54'0 0.0 160 / 29979.4 0.4 -0.0
2019-Mar-19 03:00N 72°36' W 013°54'6 6.3 150 / 29981.0 0.5 0.2 -0.1
2019-Mar-19 02:00N 72°42' W 014°00'0 0.0 150 / 33982.4 0.4 -0.0
2019-Mar-19 01:00N 72°42' W 014°00'2 1.8 140 / 35983.9 -0.3 -0.0
2019-Mar-19 00:00N 72°42' W 014°06'0 0.0 140 / 34986.1 0.3 -0.8 -0.0
2019-Mar-18 23:00N 72°42' W 014°06'2 1.8 130 / 36988.3 -1.5 0.1
2019-Mar-18 22:00N 72°42' W 014°12'0 0.0 130 / 34990.5 -2.1 -0.2
2019-Mar-18 21:00N 72°42' W 014°12'2 1.8 130 / 36992.9 0.3 -3.3 -0.0
2019-Mar-18 20:00N 72°42' W 014°18'6 6.0 120 / 36994.9 -4.3 -0.0
2019-Mar-18 19:00N 72°36' W 014°18'5 5.4 130 / 33996.8 -4.3 -0.0
2019-Mar-18 18:00N 72°36' W 014°00'1110.8 130 / 29998.8 2.2 -5.3 -0.1
2019-Mar-18 17:00N 72°30' W 013°30'9 9.4 150 / 251000.8 -6.2 0.1
2019-Mar-18 16:00N 72°24' W 013°06'1110.9 110 / 231002.5 -7.8 0.3
2019-Mar-18 15:00N 72°18' W 012°36'9 9.5 100 / 201004.1 -10.0 -0.1
2019-Mar-18 14:00N 72°12' W 012°12'1111.0 100 / 141005.7 -11.6 -0.2
2019-Mar-18 13:00N 72°06' W 011°42'10 9.5 090 / 111006.2 -12.2 -0.0
2019-Mar-18 12:00N 72°00' W 011°18'1111.1 080 / 81006.627.0 -12.5 -0.1
2019-Mar-18 11:00N 71°54' W 010°48'10 9.6 350 / 31007.0 -12.5 -0.1
2019-Mar-18 10:00N 71°48' W 010°24'10 9.6 300 / 61006.4 -11.8 -0.1
2019-Mar-18 09:00N 71°42' W 010°00'10 9.6 280 / 71006.227.0 -11.3 -0.2
2019-Mar-18 08:00N 71°36' W 009°36'8 8.3 270 / 101005.9 -11.0 0.1
2019-Mar-18 07:00N 71°30' W 009°18'10 9.7 270 / 131005.5 -10.6 -0.0
2019-Mar-18 06:00N 71°24' W 008°54'6 5.7 270 / 131004.7 5.4 -9.8 0.3
2019-Mar-18 05:00N 71°24' W 008°36'7 7.1 250 / 161004.1 -9.3 0.4
2019-Mar-18 04:00N 71°18' W 008°24'8 8.3 270 / 131003.7 -9.2 0.4
2019-Mar-18 03:00N 71°12' W 008°06'6 5.8 260 / 171003.3 5.4 -9.2 0.4
2019-Mar-18 02:00N 71°12' W 007°48'6 5.8 300 / 261002.0 -9.0 0.4
2019-Mar-18 01:00N 71°12' W 007°30'6 5.8 300 / 301001.1 -8.7 0.3
2019-Mar-18 00:00N 71°12' W 007°12'8 8.4 300 / 35999.910.8 -8.5 0.3
2019-Mar-17 23:00N 71°06' W 006°54'8 7.8 300 / 27999.3 -7.6 0.3
2019-Mar-17 22:00N 71°06' W 006°30'8 7.8 270 / 24998.4 -6.6 0.6
2019-Mar-17 21:00N 71°06' W 006°06'8 7.8 240 / 28997.510.8 -5.2 1.2
2019-Mar-17 20:00N 71°06' W 005°42'10 9.8 230 / 27996.8 -2.8 1.8
2019-Mar-17 19:00N 71°00' W 005°18'10 9.8 180 / 37996.3 0.7 2.0
2019-Mar-17 18:00N 71°00' W 004°48'10 9.8 180 / 38998.010.8 1.0 3.5
2019-Mar-17 17:00N 71°00' W 004°18'10 9.8 170 / 34999.9 1.0 3.0
2019-Mar-17 16:00N 71°00' W 003°48'1111.5 170 / 321001.3 0.4 3.9
2019-Mar-17 15:00N 70°54' W 003°18'10 9.8 180 / 261003.2 -0.6 4.9
2019-Mar-17 14:00N 70°54' W 002°48'10 9.8 180 / 211004.8 -1.6 4.9
2019-Mar-17 13:00N 70°54' W 002°18'10 9.8 190 / 181005.8 -2.2 4.9
2019-Mar-17 12:00N 70°54' W 001°48'1313.2 170 / 121006.7 -3.3 4.9
2019-Mar-17 11:00N 70°48' W 001°12'10 9.9 150 / 71007.4 -3.8 5.0
2019-Mar-17 10:00N 70°48' W 000°42'10 9.9 150 / 51007.7 -4.0 5.1
2019-Mar-17 09:00N 70°48' W 000°12'1211.6 100 / 11007.627.0 -4.3 5.0
2019-Mar-17 08:00N 70°42' E 000°18'1211.9 1007.5 -4.3 5.6
2019-Mar-17 07:00N 70°42' E 000°54'10 9.9 020 / 71007.2 -4.2 5.5
2019-Mar-17 06:00N 70°42' E 001°24'1211.6 340 / 101007.0 -4.0 5.4
2019-Mar-17 05:00N 70°36' E 001°54'1010.0 360 / 131006.3 -2.8 5.6
2019-Mar-17 04:00N 70°36' E 002°24'1010.0 1006.1 -2.7 5.9
2019-Mar-17 03:00N 70°36' E 002°54'1211.7 350 / 141005.910.8 -2.8 5.8
2019-Mar-17 02:00N 70°30' E 003°24'1010.0 320 / 151005.7 -2.8 5.9
2019-Mar-17 01:00N 70°30' E 003°54'1010.0 320 / 161005.4 -2.0 5.8
2019-Mar-17 00:00N 70°30' E 004°24'1010.0 320 / 181004.810.8 -1.8 5.8
2019-Mar-16 23:00N 70°30' E 004°54'1010.0 330 / 211004.0 -0.8 5.6
2019-Mar-16 22:00N 70°24' E 005°18'1010.1 350 / 181003.4 -0.5 5.7
2019-Mar-16 21:00N 70°24' E 005°48'6 6.0 330 / 221002.8 -0.3 5.6
2019-Mar-16 20:00N 70°24' E 006°06'8 8.1 330 / 271001.9 0.2 5.7
2019-Mar-16 19:00N 70°24' E 006°30'6 6.0 320 / 261000.8 0.5 5.7
2019-Mar-16 18:00N 70°24' E 006°48'1010.1 320 / 271000.5 0.7 5.8
2019-Mar-16 17:00N 70°18' E 007°12'8 8.1 320 / 30999.6 0.5 5.9
2019-Mar-16 16:00N 70°18' E 007°36'8 8.1 310 / 31998.9 0.7 6.1
2019-Mar-16 15:00N 70°18' E 008°00'8 8.1 300 / 30998.810.8 0.2 6.0
2019-Mar-16 14:00N 70°18' E 008°24'1010.1 300 / 29998.8 -0.2 6.2
2019-Mar-16 13:00N 70°12' E 008°48'8 8.1 300 / 26998.5 -0.3 6.3
2019-Mar-16 12:00N 70°12' E 009°12'1010.2 300 / 21998.6 5.4 -1.5 6.3
2019-Mar-16 11:00N 70°12' E 009°42'8 8.1 290 / 21998.3 -1.0 6.3
2019-Mar-16 10:00N 70°12' E 010°06'1010.1 310 / 23997.9 -1.7 5.6
2019-Mar-16 09:00N 70°06' E 010°30'1010.2 290 / 23997.6 5.4 -1.3 6.1
2019-Mar-16 08:00N 70°06' E 011°00'8 8.2 300 / 24997.1 -1.7 6.3
2019-Mar-16 07:00N 70°06' E 011°24'1010.2 310 / 25996.6 -1.8 6.3
2019-Mar-16 06:00N 70°06' E 011°54'1010.2 300 / 24995.9 -1.5 6.4
2019-Mar-16 05:00N 70°00' E 012°18'1010.3 290 / 26995.7 -2.3 5.7
2019-Mar-16 04:00N 70°00' E 012°48'1010.3 280 / 22995.2 -1.6 6.2
2019-Mar-16 03:00N 70°00' E 013°18'1010.3 320 / 23994.5 -0.6 6.6
2019-Mar-16 02:00N 70°00' E 013°48'356.8 320 / 25993.8 -0.0 6.0
2019-Mar-16 01:56N 69°57' E 013°47'4 9.7
2019-Mar-16 01:29N 69°56' E 013°59'510.2
2019-Mar-16 01:00N 69°55' E 014°13'1119.3
2019-Mar-16 01:00N 69°54' E 014°12'511.1 320 / 22993.210.8 0.7 5.4
2019-Mar-16 00:30N 69°54' E 014°28'510.0
2019-Mar-16 00:00N 69°53' E 014°42'182.8
2019-Mar-16 00:00N 69°54' E 014°42'611.1 330 / 28992.1 -0.0 6.0
2019-Mar-15 23:30N 69°52' E 014°57'511.0
2019-Mar-15 23:00N 69°52' E 015°13'2191.1
2019-Mar-15 23:00N 69°54' E 015°12'613.1 340 / 20991.6 -0.2 6.0
2019-Mar-15 22:30N 69°51' E 015°28'510.1
2019-Mar-15 22:00N 69°50' E 015°42'2143.7
2019-Mar-15 22:00N 69°48' E 015°42'510.2 310 / 27990.627.0 0.9 5.1
2019-Mar-15 21:30N 69°49' E 015°56'5 9.9
2019-Mar-15 21:00N 69°48' E 016°10'141.3
2019-Mar-15 21:00N 69°48' E 016°12'4 8.7 360 / 24989.7 0.9 6.2
2019-Mar-15 20:29N 69°47' E 016°24'510.3
2019-Mar-15 20:00N 69°46' E 016°39'2146.5
2019-Mar-15 20:00N 69°48' E 016°42'5 9.6 220 / 5989.5 0.2 4.9
2019-Mar-15 19:30N 69°46' E 016°54'510.3
2019-Mar-15 19:00N 69°45' E 017°08'3769.1
2019-Mar-15 19:00N 69°48' E 017°06'714.6 210 / 9989.1 -0.0 3.6
2019-Mar-15 18:30N 69°44' E 017°23'510.7
2019-Mar-15 18:00N 69°43' E 017°38'174.2
2019-Mar-15 18:00N 69°42' E 017°36'510.6 190 / 8988.8 -0.3 3.2
2019-Mar-15 17:30N 69°39' E 017°48'611.1
2019-Mar-15 17:00N 69°34' E 017°57'2247.5
2019-Mar-15 17:00N 69°36' E 018°00'612.5 120 / 4988.8 -1.1 2.5
2019-Mar-15 16:30N 69°31' E 018°10'510.7
2019-Mar-15 16:00N 69°32' E 018°25'2356.9
2019-Mar-15 16:00N 69°30' E 018°24'612.8 260 / 4988.8 -0.8 2.0
2019-Mar-15 15:30N 69°33' E 018°40'611.4
2019-Mar-15 15:00N 69°36' E 018°54'151.5 150 / 2988.6 -1.0 2.3
2019-Mar-15 14:58N 69°36' E 018°52'4 8.9
2019-Mar-15 14:30N 69°39' E 018°59'0 0.9
2019-Mar-15 14:00N 69°39' E 018°58'3194.2
2019-Mar-15 14:00N 69°42' E 019°00'3 5.3 350 / 1988.6 -0.3 3.3
2019-Mar-15 13:30N 69°39' E 018°58'0 0.0
2019-Mar-15 13:00N 69°39' E 018°58'3202.6
2019-Mar-15 13:00N 69°42' E 019°00'3 5.3 360 / 1988.6 -0.6 3.1
2019-Mar-15 12:30N 69°39' E 018°58'0 0.0
2019-Mar-15 12:00N 69°39' E 018°58'3207.1
2019-Mar-15 12:00N 69°42' E 019°00'3 5.3 260 / 2988.7 -0.3 2.9
2019-Mar-15 11:30N 69°39' E 018°58'0 0.0
2019-Mar-15 11:00N 69°39' E 018°58'3216.8
2019-Mar-15 11:00N 69°42' E 019°00'3 5.3 280 / 2988.7 -0.3 3.4
2019-Mar-15 10:30N 69°39' E 018°58'0 0.0
2019-Mar-15 10:00N 69°39' E 018°58'3227.9
2019-Mar-15 10:00N 69°42' E 019°00'3 5.3 200 / 3988.7 -0.7 3.5
2019-Mar-15 09:30N 69°39' E 018°58'0 0.0
2019-Mar-15 09:00N 69°39' E 018°58'3233.0
2019-Mar-15 09:00N 69°42' E 019°00'   988.7 -1.1 3.2
Track history (hours):
 
Tides and Currents Weather Stations Pressure Air Temp Water Temp Dewpoint Dewpoint Depression Visibility Wind Speed Wind Dir Waves Ship Positions

Oceanographic research ship RV Helmer Hanssen (Norway)

ex Jan Mayen.

Ship's website: http://uit.no/bfe

Detailed information on ship capabilities available from University of Delaware's Ocean Information Center and ARCUS's ALIAS (Arctic Logistics Information and Support) project.

Last reported at 2019-Mar-25 09:00 UTC. Time now 2019-Mar-25 09:47 UTC.
Position N 71°48' W 017°06'.

Length 64 m; beam 13 m.

Type: Other ship. MMSI: 257471500.

Wind from 240 at 5 knots

Barometer 1022.3 mb
Air temperature -12.2 ° C
Visibility: greater than 27.0 NM
Water temperature -0.0 ° C

Date/timePositionNaut miles runAvg speedWind from/ knotsBaromVisibWave heightAir tempDewpointWater temp
2019-Mar-25 09:00N 71°48' W 017°06'4 3.7 240 / 51022.327.0 -12.2 -0.0
2019-Mar-25 08:00N 71°48' W 016°54'6 6.3 240 / 21023.1 -12.6 0.3
2019-Mar-25 07:00N 71°42' W 016°48'0 0.0 320 / 31023.2 -12.8 -0.1
2019-Mar-25 06:00N 71°42' W 016°48'2 1.9 310 / 31023.810.8 -13.0 -0.2
2019-Mar-25 05:00N 71°42' W 016°42'0 0.0 300 / 41023.8 -13.1 -0.1
2019-Mar-25 04:00N 71°42' W 016°42'0 0.0 340 / 81023.5 -13.0 -0.0
2019-Mar-25 03:00N 71°42' W 016°42'0 0.0 340 / 101023.610.8 -12.8 -0.1
2019-Mar-25 02:00N 71°42' W 016°42'0 0.0 340 / 111023.4 -12.7 -0.3
2019-Mar-25 01:00N 71°42' W 016°42'0 0.0 330 / 141023.7 -12.7 -0.0
2019-Mar-25 00:00N 71°42' W 016°42'6 6.0 340 / 171023.527.0 -12.8 -0.2
2019-Mar-24 23:00N 71°48' W 016°42'0 0.0 350 / 201022.4 -12.3 -0.1
2019-Mar-24 22:00N 71°48' W 016°42'0 0.0 340 / 181021.9 -12.0 0.1
2019-Mar-24 21:00N 71°48' W 016°42'2 1.9 330 / 211021.727.0 -12.5 -0.0
2019-Mar-24 20:00N 71°48' W 016°36'6 6.3 330 / 231021.1 -12.3 -0.1
2019-Mar-24 19:00N 71°54' W 016°30'2 1.9 330 / 231020.3 -12.0 -0.8
2019-Mar-24 18:00N 71°54' W 016°24'6 6.0 330 / 221019.0 -12.1 -0.8
2019-Mar-24 17:00N 72°00' W 016°24'0 0.0 330 / 221018.1 -12.3 -0.8
2019-Mar-24 16:00N 72°00' W 016°24'6 6.3 320 / 211017.0 -12.5 -0.5
2019-Mar-24 15:00N 72°06' W 016°18'0 0.0 320 / 211016.4 5.4 -12.2 -0.8
2019-Mar-24 14:00N 72°06' W 016°18'2 1.8 320 / 191015.8 -12.3 -1.1
2019-Mar-24 13:00N 72°06' W 016°24'2 1.8 320 / 201015.2 -12.5 -0.9
2019-Mar-24 12:00N 72°06' W 016°30'2 1.8 310 / 191014.7 -12.6 -0.2
2019-Mar-24 11:00N 72°06' W 016°36'2 1.8 320 / 181014.3 -12.8 -0.7
2019-Mar-24 10:00N 72°06' W 016°42'2 1.8 330 / 131013.4 -12.1 -0.8
2019-Mar-24 09:00N 72°06' W 016°48'0 0.0 340 / 101012.5 5.4 -12.1 -0.5
2019-Mar-24 08:00N 72°06' W 016°48'0 0.0 340 / 101011.5 -12.0 -0.6
2019-Mar-24 07:00N 72°06' W 016°48'0 0.0 350 / 111010.5 -11.5 -0.7
2019-Mar-24 06:00N 72°06' W 016°48'0 0.0 010 / 101009.610.8 -10.8 -0.5
2019-Mar-24 05:00N 72°06' W 016°48'0 0.0 020 / 111009.0 -11.0 -0.5
2019-Mar-24 04:00N 72°06' W 016°48'2 1.8 020 / 131008.5 -11.3 -0.6
2019-Mar-24 03:00N 72°06' W 016°54'2 1.8 030 / 151007.7 -11.5 -0.7
2019-Mar-24 02:00N 72°06' W 016°48'0 0.0 030 / 131007.1 -11.8 -0.5
2019-Mar-24 01:00N 72°06' W 016°48'0 0.0 020 / 101007.1 -11.8 -0.6
2019-Mar-24 00:00N 72°06' W 016°48'0 0.0 020 / 101006.410.8 -11.8 -0.9
2019-Mar-23 23:00N 72°06' W 016°48'2 1.8 020 / 101005.7 -12.2 -0.9
2019-Mar-23 22:00N 72°06' W 016°42'0 0.0 010 / 111005.4 -12.6 -0.6
2019-Mar-23 21:00N 72°06' W 016°42'0 0.0 010 / 101005.027.0 -12.2 -0.4
2019-Mar-23 20:00N 72°06' W 016°42'2 1.8 1004.5 -12.2 -0.6
2019-Mar-23 19:00N 72°06' W 016°48'0 0.0 010 / 101004.0 -12.6 -0.7
2019-Mar-23 18:00N 72°06' W 016°48'0 0.0 010 / 101003.3 -12.6 -1.0
2019-Mar-23 17:00N 72°06' W 016°48'0 0.0 340 / 121003.2 -12.2 -0.8
2019-Mar-23 16:00N 72°06' W 016°48'6 6.0 330 / 131002.6 -12.2 -0.0
2019-Mar-23 15:00N 72°00' W 016°48'2 1.9 350 / 151002.3 -12.2 0.1
2019-Mar-23 14:00N 72°00' W 016°42'2 1.9 350 / 171001.1 -11.8 0.1
2019-Mar-23 13:00N 72°00' W 016°36'2 1.9 350 / 171000.6 -12.6 0.1
2019-Mar-23 12:00N 72°00' W 016°30'0 0.0 340 / 181000.327.0 -12.8 -0.0
2019-Mar-23 11:00N 72°00' W 016°30'2 1.9 350 / 22999.3 -12.5 -0.2
2019-Mar-23 10:00N 72°00' W 016°24'2 1.9 350 / 21998.8 -13.8 0.1
2019-Mar-23 09:00N 72°00' W 016°18'0 0.0 360 / 24997.727.0 -14.2 0.5
2019-Mar-23 08:00N 72°00' W 016°18'6 6.0 350 / 26997.3 -15.0 0.6
2019-Mar-23 07:00N 72°06' W 016°18'0 0.0 340 / 27996.3 -14.8 0.5
2019-Mar-23 06:00N 72°06' W 016°18'0 0.0 340 / 27995.210.8 -14.8 -0.1
2019-Mar-23 05:00N 72°06' W 016°18'0 0.0 350 / 30994.0 -14.3 0.3
2019-Mar-23 04:00N 72°06' W 016°18'6 6.0 350 / 31993.3 -15.3 -0.0
2019-Mar-23 03:00N 72°12' W 016°18'2 1.8 340 / 28993.2 -14.3 -0.3
2019-Mar-23 02:00N 72°12' W 016°12'0 0.0 340 / 25992.3 -14.0 -0.9
2019-Mar-23 01:00N 72°12' W 016°12'2 1.8 360 / 31991.7 -12.8 -1.1
2019-Mar-23 00:00N 72°12' W 016°06'0 0.0 360 / 31991.510.8 -12.6 -1.2
2019-Mar-22 23:00N 72°12' W 016°06'0 0.0 991.1 -11.8 -1.1
2019-Mar-22 22:00N 72°12' W 016°06'0 0.0 991.0 -12.5 -0.4
2019-Mar-22 21:00N 72°12' W 016°06'0 0.0 991.027.0 -12.2 0.4
2019-Mar-22 20:00N 72°12' W 016°06'6 6.0 010 / 33990.8 -11.0 0.1
2019-Mar-22 19:00N 72°18' W 016°06'2 1.8 010 / 30991.5 -10.8 -1.0
2019-Mar-22 18:00N 72°18' W 016°00'0 0.0 020 / 29992.210.8 -10.7 -0.8
2019-Mar-22 17:00N 72°18' W 016°00'2 1.8 020 / 28992.5 -10.5 -0.7
2019-Mar-22 16:00N 72°18' W 015°54'0 0.0 020 / 25993.8 -11.1 -0.7
2019-Mar-22 15:00N 72°18' W 015°54'2 1.8 020 / 21995.3 -12.2 -0.8
2019-Mar-22 14:00N 72°18' W 015°48'0 0.0 020 / 19996.0 -11.8 -0.8
2019-Mar-22 13:00N 72°18' W 015°48'0 0.0 020 / 18997.4 -13.7 -1.1
2019-Mar-22 12:00N 72°18' W 015°48'0 0.0 020 / 15998.910.8 -13.8 -1.3
2019-Mar-22 11:00N 72°18' W 015°48'0 0.0 360 / 121000.3 -14.2 -1.5
2019-Mar-22 10:00N 72°18' W 015°48'2 1.8 340 / 81002.0 -13.8 -1.2
2019-Mar-22 09:00N 72°18' W 015°42'4 3.6 330 / 81002.827.0 -13.7 -1.6
2019-Mar-22 08:00N 72°18' W 015°30'7 7.3 330 / 91003.5 -13.7 -1.6
2019-Mar-22 07:00N 72°18' W 015°06'1110.9 330 / 61004.1 -12.2 -1.1
2019-Mar-22 06:00N 72°24' W 014°36'6 6.0 270 / 51004.527.0 -13.2 -1.2
2019-Mar-22 05:00N 72°30' W 014°36'2 1.8 280 / 81004.5 -14.6 -1.5
2019-Mar-22 04:00N 72°30' W 014°42'0 0.0 270 / 131004.3 -15.1 -1.8
2019-Mar-22 03:00N 72°30' W 014°42'6 6.3 290 / 181003.610.8 -14.3 -1.8
2019-Mar-22 02:00N 72°36' W 014°36'1212.0 270 / 251002.9 -14.3 -0.4
2019-Mar-22 01:00N 72°48' W 014°36'6 6.3 250 / 291002.0 -15.6 -1.1
2019-Mar-22 00:00N 72°54' W 014°42'4 3.5 260 / 281000.727.0 -15.1 -0.9
2019-Mar-21 23:00N 72°54' W 014°54'7 7.0 260 / 29999.5 -16.2 -1.0
2019-Mar-21 22:00N 73°00' W 015°06'4 3.5 250 / 27998.6 -17.1 -1.2
2019-Mar-21 21:00N 73°00' W 015°18'5 5.3 250 / 26997.227.0 -17.3 -1.5
2019-Mar-21 20:00N 73°00' W 015°36'2 1.8 250 / 24996.1 -16.7 -1.4
2019-Mar-21 19:00N 73°00' W 015°42'2 1.8 260 / 22995.0 -17.3 -1.3
2019-Mar-21 18:00N 73°00' W 015°48'0 0.0 260 / 25993.9 -17.3 -1.5
2019-Mar-21 17:00N 73°00' W 015°48'6 6.0 260 / 24992.6 -16.8 -1.6
2019-Mar-21 16:00N 72°54' W 015°48'0 0.0 270 / 22991.0 -15.8 -1.1
2019-Mar-21 15:00N 72°54' W 015°48'2 1.8 290 / 30989.2 -15.8 -1.1
2019-Mar-21 14:00N 72°54' W 015°42'2 1.8 300 / 33986.9 -16.3 -1.0
2019-Mar-21 13:00N 72°54' W 015°36'0 0.0 310 / 27984.1 -16.8 -1.6
2019-Mar-21 12:00N 72°54' W 015°36'2 1.8 310 / 20981.9 2.2 -15.8 -1.5
2019-Mar-21 11:00N 72°54' W 015°42'0 0.0 310 / 14980.1 -14.0 -1.3
2019-Mar-21 10:00N 72°54' W 015°42'0 0.0 220 / 19979.2 -15.2 -1.2
2019-Mar-21 09:00N 72°54' W 015°42'0 0.0 230 / 21978.8 -13.8 -1.1
2019-Mar-21 08:00N 72°54' W 015°42'0 0.0 220 / 9977.9 -11.3 -1.2
2019-Mar-21 07:00N 72°54' W 015°42'0 0.0 170 / 21977.4 -9.3 -1.2
2019-Mar-21 06:00N 72°54' W 015°42'0 0.0 110 / 2977.9 2.2 -10.8 -1.1
2019-Mar-21 05:00N 72°54' W 015°42'2 1.8 350 / 8977.6 -10.5 -0.9
2019-Mar-21 04:00N 72°54' W 015°48'0 0.0 010 / 7978.2 -11.2 -0.9
2019-Mar-21 03:00N 72°54' W 015°48'0 0.0 290 / 5978.810.8 -10.1 -0.8
2019-Mar-21 02:00N 72°54' W 015°48'0 0.0 260 / 6979.1 -10.2 -1.3
2019-Mar-21 01:00N 72°54' W 015°48'0 0.0 240 / 16979.6 -9.6 -1.3
2019-Mar-21 00:00N 72°54' W 015°48'2 1.8 190 / 8979.610.8 -7.8 -1.4
2019-Mar-20 23:00N 72°54' W 015°42'0 0.0 180 / 7979.6 -7.8 -1.3
2019-Mar-20 22:00N 72°54' W 015°42'0 0.0 290 / 11980.1 -11.8 -1.6
2019-Mar-20 21:00N 72°54' W 015°42'2 1.8 110 / 8979.5 5.4 -6.1 -1.4
2019-Mar-20 20:00N 72°54' W 015°48'0 0.0 320 / 3980.4 -9.3 -1.2
2019-Mar-20 19:00N 72°54' W 015°48'0 0.0 150 / 6980.8 -9.1 -1.1
2019-Mar-20 18:00N 72°54' W 015°48'2 1.8 250 / 6980.910.8 -11.8 -1.4
2019-Mar-20 17:00N 72°54' W 015°54'0 0.0 210 / 11981.4 -11.0 -1.6
2019-Mar-20 16:00N 72°54' W 015°54'0 0.0 220 / 18981.5 -11.0 -1.3
2019-Mar-20 15:00N 72°54' W 015°54'2 1.8 200 / 13981.2 -10.0 -1.3
2019-Mar-20 14:00N 72°54' W 016°00'2 1.8 350 / 11980.2 -12.0 -1.4
2019-Mar-20 13:00N 72°54' W 015°54'0 0.0 320 / 17977.4 -9.6 -1.4
2019-Mar-20 12:00N 72°54' W 015°54'0 0.0 050 / 28976.8 0.3 -7.6 -1.5
2019-Mar-20 11:00N 72°54' W 015°54'2 1.8 060 / 24979.0 -9.3 -1.3
2019-Mar-20 10:00N 72°54' W 015°48'2 1.8 070 / 19980.4 -10.1 -1.6
2019-Mar-20 09:00N 72°54' W 015°54'0 0.0 070 / 17981.2 -12.0 -1.6
2019-Mar-20 08:00N 72°54' W 015°54'2 1.8 080 / 15982.4 -13.3 -1.0
2019-Mar-20 07:00N 72°54' W 015°48'0 0.0 070 / 11982.9 -14.8 -1.4
2019-Mar-20 06:00N 72°54' W 015°48'0 0.0 070 / 7983.810.8 -16.5 -1.4
2019-Mar-20 05:00N 72°54' W 015°48'0 0.0 020 / 8984.0 -18.7 -1.4
2019-Mar-20 04:00N 72°54' W 015°48'0 0.0 360 / 7984.2 -19.8 -1.3
2019-Mar-20 03:00N 72°54' W 015°48'0 0.0 330 / 6984.610.8 -20.5 -1.0
2019-Mar-20 02:00N 72°54' W 015°48'2 1.8 320 / 7984.8 -20.1 -1.1
2019-Mar-20 01:00N 72°54' W 015°42'0 0.0 010 / 13984.6 -19.6 -1.1
2019-Mar-20 00:00N 72°54' W 015°42'0 0.0 350 / 16984.110.8 -19.9 -1.2
2019-Mar-19 23:00N 72°54' W 015°42'6 6.0 340 / 20983.7 -20.0 -1.0
2019-Mar-19 22:00N 73°00' W 015°42'0 0.0 340 / 21982.9 -19.3 -0.9
2019-Mar-19 21:00N 73°00' W 015°42'0 0.0 340 / 25982.1 -19.9 -1.3
2019-Mar-19 20:00N 73°00' W 015°42'2 1.8 340 / 25981.6 -20.2 -1.3
2019-Mar-19 19:00N 73°00' W 015°36'2 1.8 350 / 28980.8 -20.0 -1.3
2019-Mar-19 18:00N 73°00' W 015°42'0 0.0 340 / 31980.2 1.1 -20.7 -1.4
2019-Mar-19 17:00N 73°00' W 015°42'6 6.3 350 / 30980.3 -20.3 -1.4
2019-Mar-19 16:00N 72°54' W 015°36'2 1.8 350 / 34979.4 -19.6 -1.3
2019-Mar-19 15:00N 72°54' W 015°30'2 1.8 350 / 34978.9 -19.5 -1.0
2019-Mar-19 14:00N 72°54' W 015°24'2 1.8 350 / 34979.2 -18.4 -1.0
2019-Mar-19 13:00N 72°54' W 015°18'6 6.3 350 / 34978.5 -18.4 -0.4
2019-Mar-19 12:00N 72°48' W 015°12'2 1.8 350 / 34978.0 -17.7 -0.5
2019-Mar-19 11:00N 72°48' W 015°06'4 3.5 350 / 32978.2 -17.1 -0.5
2019-Mar-19 10:00N 72°48' W 014°54'7 7.0 350 / 29977.6 -15.1 -0.6
2019-Mar-19 09:00N 72°42' W 014°42'9 8.9 340 / 24976.8 2.2 -10.8 -0.3
2019-Mar-19 08:00N 72°42' W 014°12'9 9.3 310 / 11976.4 -4.7 -0.3
2019-Mar-19 07:00N 72°36' W 013°48'0 0.0 230 / 14976.8 -1.3 -0.0
2019-Mar-19 06:00N 72°36' W 013°48'0 0.0 170 / 23977.4 2.2 0.2 -0.1
2019-Mar-19 05:00N 72°36' W 013°48'2 1.8 160 / 24978.3 0.2 -0.0
2019-Mar-19 04:00N 72°36' W 013°54'0 0.0 160 / 29979.4 0.4 -0.0
2019-Mar-19 03:00N 72°36' W 013°54'6 6.3 150 / 29981.0 0.5 0.2 -0.1
2019-Mar-19 02:00N 72°42' W 014°00'0 0.0 150 / 33982.4 0.4 -0.0
2019-Mar-19 01:00N 72°42' W 014°00'2 1.8 140 / 35983.9 -0.3 -0.0
2019-Mar-19 00:00N 72°42' W 014°06'0 0.0 140 / 34986.1 0.3 -0.8 -0.0
2019-Mar-18 23:00N 72°42' W 014°06'2 1.8 130 / 36988.3 -1.5 0.1
2019-Mar-18 22:00N 72°42' W 014°12'0 0.0 130 / 34990.5 -2.1 -0.2
2019-Mar-18 21:00N 72°42' W 014°12'2 1.8 130 / 36992.9 0.3 -3.3 -0.0
2019-Mar-18 20:00N 72°42' W 014°18'6 6.0 120 / 36994.9 -4.3 -0.0
2019-Mar-18 19:00N 72°36' W 014°18'5 5.4 130 / 33996.8 -4.3 -0.0
2019-Mar-18 18:00N 72°36' W 014°00'1110.8 130 / 29998.8 2.2 -5.3 -0.1
2019-Mar-18 17:00N 72°30' W 013°30'9 9.4 150 / 251000.8 -6.2 0.1
2019-Mar-18 16:00N 72°24' W 013°06'1110.9 110 / 231002.5 -7.8 0.3
2019-Mar-18 15:00N 72°18' W 012°36'9 9.5 100 / 201004.1 -10.0 -0.1
2019-Mar-18 14:00N 72°12' W 012°12'1111.0 100 / 141005.7 -11.6 -0.2
2019-Mar-18 13:00N 72°06' W 011°42'10 9.5 090 / 111006.2 -12.2 -0.0
2019-Mar-18 12:00N 72°00' W 011°18'1111.1 080 / 81006.627.0 -12.5 -0.1
2019-Mar-18 11:00N 71°54' W 010°48'10 9.6 350 / 31007.0 -12.5 -0.1
2019-Mar-18 10:00N 71°48' W 010°24'10 9.6 300 / 61006.4 -11.8 -0.1
2019-Mar-18 09:00N 71°42' W 010°00'10 9.6 280 / 71006.227.0 -11.3 -0.2
2019-Mar-18 08:00N 71°36' W 009°36'8 8.3 270 / 101005.9 -11.0 0.1
2019-Mar-18 07:00N 71°30' W 009°18'10 9.7 270 / 131005.5 -10.6 -0.0
2019-Mar-18 06:00N 71°24' W 008°54'6 5.7 270 / 131004.7 5.4 -9.8 0.3
2019-Mar-18 05:00N 71°24' W 008°36'7 7.1 250 / 161004.1 -9.3 0.4
2019-Mar-18 04:00N 71°18' W 008°24'8 8.3 270 / 131003.7 -9.2 0.4
2019-Mar-18 03:00N 71°12' W 008°06'6 5.8 260 / 171003.3 5.4 -9.2 0.4
2019-Mar-18 02:00N 71°12' W 007°48'6 5.8 300 / 261002.0 -9.0 0.4
2019-Mar-18 01:00N 71°12' W 007°30'6 5.8 300 / 301001.1 -8.7 0.3
2019-Mar-18 00:00N 71°12' W 007°12'8 8.4 300 / 35999.910.8 -8.5 0.3
2019-Mar-17 23:00N 71°06' W 006°54'8 7.8 300 / 27999.3 -7.6 0.3
2019-Mar-17 22:00N 71°06' W 006°30'8 7.8 270 / 24998.4 -6.6 0.6
2019-Mar-17 21:00N 71°06' W 006°06'8 7.8 240 / 28997.510.8 -5.2 1.2
2019-Mar-17 20:00N 71°06' W 005°42'10 9.8 230 / 27996.8 -2.8 1.8
2019-Mar-17 19:00N 71°00' W 005°18'10 9.8 180 / 37996.3 0.7 2.0
2019-Mar-17 18:00N 71°00' W 004°48'10 9.8 180 / 38998.010.8 1.0 3.5
2019-Mar-17 17:00N 71°00' W 004°18'10 9.8 170 / 34999.9 1.0 3.0
2019-Mar-17 16:00N 71°00' W 003°48'1111.5 170 / 321001.3 0.4 3.9
2019-Mar-17 15:00N 70°54' W 003°18'10 9.8 180 / 261003.2 -0.6 4.9
2019-Mar-17 14:00N 70°54' W 002°48'10 9.8 180 / 211004.8 -1.6 4.9
2019-Mar-17 13:00N 70°54' W 002°18'10 9.8 190 / 181005.8 -2.2 4.9
2019-Mar-17 12:00N 70°54' W 001°48'1313.2 170 / 121006.7 -3.3 4.9
2019-Mar-17 11:00N 70°48' W 001°12'10 9.9 150 / 71007.4 -3.8 5.0
2019-Mar-17 10:00N 70°48' W 000°42'10 9.9 150 / 51007.7 -4.0 5.1
2019-Mar-17 09:00N 70°48' W 000°12'1211.6 100 / 11007.627.0 -4.3 5.0
2019-Mar-17 08:00N 70°42' E 000°18'1211.9 1007.5 -4.3 5.6
2019-Mar-17 07:00N 70°42' E 000°54'10 9.9 020 / 71007.2 -4.2 5.5
2019-Mar-17 06:00N 70°42' E 001°24'1211.6 340 / 101007.0 -4.0 5.4
2019-Mar-17 05:00N 70°36' E 001°54'1010.0 360 / 131006.3 -2.8 5.6
2019-Mar-17 04:00N 70°36' E 002°24'1010.0 1006.1 -2.7 5.9
2019-Mar-17 03:00N 70°36' E 002°54'1211.7 350 / 141005.910.8 -2.8 5.8
2019-Mar-17 02:00N 70°30' E 003°24'1010.0 320 / 151005.7 -2.8 5.9
2019-Mar-17 01:00N 70°30' E 003°54'1010.0 320 / 161005.4 -2.0 5.8
2019-Mar-17 00:00N 70°30' E 004°24'1010.0 320 / 181004.810.8 -1.8 5.8
2019-Mar-16 23:00N 70°30' E 004°54'1010.0 330 / 211004.0 -0.8 5.6
2019-Mar-16 22:00N 70°24' E 005°18'1010.1 350 / 181003.4 -0.5 5.7
2019-Mar-16 21:00N 70°24' E 005°48'6 6.0 330 / 221002.8 -0.3 5.6
2019-Mar-16 20:00N 70°24' E 006°06'8 8.1 330 / 271001.9 0.2 5.7
2019-Mar-16 19:00N 70°24' E 006°30'6 6.0 320 / 261000.8 0.5 5.7
2019-Mar-16 18:00N 70°24' E 006°48'1010.1 320 / 271000.5 0.7 5.8
2019-Mar-16 17:00N 70°18' E 007°12'8 8.1 320 / 30999.6 0.5 5.9
2019-Mar-16 16:00N 70°18' E 007°36'8 8.1 310 / 31998.9 0.7 6.1
2019-Mar-16 15:00N 70°18' E 008°00'8 8.1 300 / 30998.810.8 0.2 6.0
2019-Mar-16 14:00N 70°18' E 008°24'1010.1 300 / 29998.8 -0.2 6.2
2019-Mar-16 13:00N 70°12' E 008°48'8 8.1 300 / 26998.5 -0.3 6.3
2019-Mar-16 12:00N 70°12' E 009°12'1010.2 300 / 21998.6 5.4 -1.5 6.3
2019-Mar-16 11:00N 70°12' E 009°42'8 8.1 290 / 21998.3 -1.0 6.3
2019-Mar-16 10:00N 70°12' E 010°06'1010.1 310 / 23997.9 -1.7 5.6
2019-Mar-16 09:00N 70°06' E 010°30'1010.2 290 / 23997.6 5.4 -1.3 6.1
2019-Mar-16 08:00N 70°06' E 011°00'8 8.2 300 / 24997.1 -1.7 6.3
2019-Mar-16 07:00N 70°06' E 011°24'1010.2 310 / 25996.6 -1.8 6.3
2019-Mar-16 06:00N 70°06' E 011°54'1010.2 300 / 24995.9 -1.5 6.4
2019-Mar-16 05:00N 70°00' E 012°18'1010.3 290 / 26995.7 -2.3 5.7
2019-Mar-16 04:00N 70°00' E 012°48'1010.3 280 / 22995.2 -1.6 6.2
2019-Mar-16 03:00N 70°00' E 013°18'1010.3 320 / 23994.5 -0.6 6.6
2019-Mar-16 02:00N 70°00' E 013°48'356.8 320 / 25993.8 -0.0 6.0
2019-Mar-16 01:56N 69°57' E 013°47'4 9.7
2019-Mar-16 01:29N 69°56' E 013°59'510.2
2019-Mar-16 01:00N 69°55' E 014°13'1119.3
2019-Mar-16 01:00N 69°54' E 014°12'511.1 320 / 22993.210.8 0.7 5.4
2019-Mar-16 00:30N 69°54' E 014°28'510.0
2019-Mar-16 00:00N 69°53' E 014°42'182.8
2019-Mar-16 00:00N 69°54' E 014°42'611.1 330 / 28992.1 -0.0 6.0
2019-Mar-15 23:30N 69°52' E 014°57'511.0
2019-Mar-15 23:00N 69°52' E 015°13'2191.1
2019-Mar-15 23:00N 69°54' E 015°12'613.1 340 / 20991.6 -0.2 6.0
2019-Mar-15 22:30N 69°51' E 015°28'510.1
2019-Mar-15 22:00N 69°50' E 015°42'2143.7
2019-Mar-15 22:00N 69°48' E 015°42'510.2 310 / 27990.627.0 0.9 5.1
2019-Mar-15 21:30N 69°49' E 015°56'5 9.9
2019-Mar-15 21:00N 69°48' E 016°10'141.3
2019-Mar-15 21:00N 69°48' E 016°12'4 8.7 360 / 24989.7 0.9 6.2
2019-Mar-15 20:29N 69°47' E 016°24'510.3
2019-Mar-15 20:00N 69°46' E 016°39'2146.5
2019-Mar-15 20:00N 69°48' E 016°42'5 9.6 220 / 5989.5 0.2 4.9
2019-Mar-15 19:30N 69°46' E 016°54'510.3
2019-Mar-15 19:00N 69°45' E 017°08'3769.1
2019-Mar-15 19:00N 69°48' E 017°06'714.6 210 / 9989.1 -0.0 3.6
2019-Mar-15 18:30N 69°44' E 017°23'510.7
2019-Mar-15 18:00N 69°43' E 017°38'174.2
2019-Mar-15 18:00N 69°42' E 017°36'510.6 190 / 8988.8 -0.3 3.2
2019-Mar-15 17:30N 69°39' E 017°48'611.1
2019-Mar-15 17:00N 69°34' E 017°57'2247.5
2019-Mar-15 17:00N 69°36' E 018°00'612.5 120 / 4988.8 -1.1 2.5
2019-Mar-15 16:30N 69°31' E 018°10'510.7
2019-Mar-15 16:00N 69°32' E 018°25'2356.9
2019-Mar-15 16:00N 69°30' E 018°24'612.8 260 / 4988.8 -0.8 2.0
2019-Mar-15 15:30N 69°33' E 018°40'611.4
2019-Mar-15 15:00N 69°36' E 018°54'151.5 150 / 2988.6 -1.0 2.3
2019-Mar-15 14:58N 69°36' E 018°52'4 8.9
2019-Mar-15 14:30N 69°39' E 018°59'0 0.9
2019-Mar-15 14:00N 69°39' E 018°58'3194.2
2019-Mar-15 14:00N 69°42' E 019°00'3 5.3 350 / 1988.6 -0.3 3.3
2019-Mar-15 13:30N 69°39' E 018°58'0 0.0
2019-Mar-15 13:00N 69°39' E 018°58'3202.6
2019-Mar-15 13:00N 69°42' E 019°00'3 5.3 360 / 1988.6 -0.6 3.1
2019-Mar-15 12:30N 69°39' E 018°58'0 0.0
2019-Mar-15 12:00N 69°39' E 018°58'3207.1
2019-Mar-15 12:00N 69°42' E 019°00'3 5.3 260 / 2988.7 -0.3 2.9
2019-Mar-15 11:30N 69°39' E 018°58'0 0.0
2019-Mar-15 11:00N 69°39' E 018°58'3216.8
2019-Mar-15 11:00N 69°42' E 019°00'3 5.3 280 / 2988.7 -0.3 3.4
2019-Mar-15 10:30N 69°39' E 018°58'0 0.0
2019-Mar-15 10:00N 69°39' E 018°58'3227.9
2019-Mar-15 10:00N 69°42' E 019°00'3 5.3 200 / 3988.7 -0.7 3.5
2019-Mar-15 09:30N 69°39' E 018°58'0 0.0
2019-Mar-15 09:00N 69°39' E 018°58'3233.0
2019-Mar-15 09:00N 69°42' E 019°00'   988.7 -1.1 3.2

Dump ship's entire track history